createdAt,value
2019-05-19T00:01:45.420Z,100197.19
2019-05-19T00:04:17.357Z,100196.34
2019-05-19T00:06:48.998Z,100198.91
2019-05-19T00:09:20.725Z,100197.47
2019-05-19T00:11:52.478Z,100198.94
2019-05-19T00:14:24.022Z,100201.10
2019-05-19T00:16:55.654Z,100193.20
2019-05-19T00:19:27.331Z,100197.84
2019-05-19T00:22:00.392Z,100200.38
2019-05-19T00:24:31.938Z,100209.11
2019-05-19T00:27:03.552Z,100206.55
2019-05-19T00:29:35.395Z,100213.49
2019-05-19T00:32:07.042Z,100206.80
2019-05-19T00:34:38.582Z,100201.34
2019-05-19T00:37:10.327Z,100196.13
2019-05-19T00:39:42.070Z,100200.74
2019-05-19T00:42:13.828Z,100197.44
2019-05-19T00:44:45.569Z,100195.76
2019-05-19T00:47:17.113Z,100191.14
2019-05-19T00:49:48.667Z,100195.02
2019-05-19T00:52:20.324Z,100195.14
2019-05-19T00:54:52.072Z,100204.97
2019-05-19T00:57:25.924Z,100192.36
2019-05-19T00:59:58.774Z,100189.81
2019-05-19T01:02:31.284Z,100188.60
2019-05-19T01:05:03.300Z,100190.67
2019-05-19T01:07:35.277Z,100183.98
2019-05-19T01:10:10.588Z,100188.23
2019-05-19T01:12:42.139Z,100188.84
2019-05-19T01:15:14.288Z,100183.37
2019-05-19T01:17:45.902Z,100187.73
2019-05-19T01:20:18.580Z,100179.00
2019-05-19T01:22:50.228Z,100182.67
2019-05-19T01:25:22.073Z,100171.85
2019-05-19T01:27:53.621Z,100167.75
2019-05-19T01:30:25.255Z,100168.70
2019-05-19T01:32:56.803Z,100171.02
2019-05-19T01:35:28.339Z,100165.78
2019-05-19T01:38:00.189Z,100166.40
2019-05-19T01:40:31.733Z,100160.45
2019-05-19T01:43:03.284Z,100163.48
2019-05-19T01:45:34.918Z,100157.78
2019-05-19T01:48:09.731Z,100156.34
2019-05-19T01:50:41.469Z,100156.34
2019-05-19T01:53:13.220Z,100151.25
2019-05-19T01:55:44.972Z,100146.52
2019-05-19T01:58:16.721Z,100146.27
2019-05-19T02:00:48.267Z,100146.89
2019-05-19T02:03:20.009Z,100144.59
2019-05-19T02:05:51.749Z,100146.28
2019-05-19T02:08:23.500Z,100152.58
2019-05-19T02:10:55.252Z,100143.23
2019-05-19T02:13:27.011Z,100156.33
2019-05-19T02:15:58.565Z,100159.98
2019-05-19T02:18:30.215Z,100157.91
2019-05-19T02:21:03.410Z,100160.69
2019-05-19T02:23:34.961Z,100166.30
2019-05-19T02:26:06.525Z,100166.30
2019-05-19T02:28:38.173Z,100167.48
2019-05-19T02:31:09.717Z,100179.15
2019-05-19T02:33:41.355Z,100167.88
2019-05-19T02:36:12.904Z,100164.23
2019-05-19T02:38:44.452Z,100163.12
2019-05-19T02:41:18.273Z,100164.22
2019-05-19T02:43:53.101Z,100157.03
2019-05-19T02:46:26.551Z,100160.30
2019-05-19T02:49:00.537Z,100169.16
2019-05-19T02:51:35.162Z,100162.86
2019-05-19T02:54:09.235Z,100164.17
2019-05-19T02:56:41.055Z,100157.72
2019-05-19T02:59:14.050Z,100158.09
2019-05-19T03:02:02.657Z,100156.75
2019-05-19T03:04:34.305Z,100158.69
2019-05-19T03:07:06.155Z,100155.66
2019-05-19T03:09:37.903Z,100155.09
2019-05-19T03:12:09.739Z,100160.80
2019-05-19T03:14:41.485Z,100155.70
2019-05-19T03:17:13.224Z,100156.70
2019-05-19T03:19:44.789Z,100149.28
2019-05-19T03:22:16.332Z,100150.72
2019-05-19T03:24:47.890Z,100148.68
2019-05-19T03:27:19.454Z,100151.95
2019-05-19T03:29:52.634Z,100158.02
2019-05-19T03:32:34.790Z,100156.20
2019-05-19T03:35:06.685Z,100157.31
2019-05-19T03:37:38.358Z,100164.59
2019-05-19T03:40:12.058Z,100169.58
2019-05-19T03:42:43.595Z,100173.19
2019-05-19T03:45:15.136Z,100164.59
2019-05-19T03:47:46.850Z,100165.42
2019-05-19T03:50:18.689Z,100156.33
2019-05-19T03:52:50.440Z,100161.28
2019-05-19T03:55:21.986Z,100155.48
2019-05-19T03:57:53.523Z,100152.27
2019-05-19T04:00:25.533Z,100147.70
2019-05-19T04:02:57.076Z,100156.72
2019-05-19T04:05:29.225Z,100154.03
2019-05-19T04:08:01.014Z,100149.36
2019-05-19T04:10:32.750Z,100157.54
2019-05-19T04:13:04.504Z,100165.06
2019-05-19T04:15:36.246Z,100174.84
2019-05-19T04:18:07.984Z,100172.28
2019-05-19T04:20:39.729Z,100174.88
2019-05-19T04:23:11.569Z,100187.16
2019-05-19T04:25:43.312Z,100180.85
2019-05-19T04:28:15.047Z,100178.08
2019-05-19T04:30:46.801Z,100172.27
2019-05-19T04:33:18.550Z,100184.09
2019-05-19T04:35:51.934Z,100182.98
2019-05-19T04:38:23.582Z,100184.59
2019-05-19T04:40:55.418Z,100182.16
2019-05-19T04:43:27.162Z,100188.19
2019-05-19T04:45:58.902Z,100188.72
2019-05-19T04:48:32.703Z,100183.53
2019-05-19T04:51:07.255Z,100179.95
2019-05-19T04:53:41.227Z,100178.41
2019-05-19T04:56:14.551Z,100184.98
2019-05-19T04:58:46.293Z,100186.30
2019-05-19T05:01:18.913Z,100184.73
2019-05-19T05:03:50.455Z,100192.64
2019-05-19T05:06:22.298Z,100181.76
2019-05-19T05:08:53.975Z,100172.59
2019-05-19T05:11:25.719Z,100169.44
2019-05-19T05:13:57.468Z,100162.14
2019-05-19T05:16:29.211Z,100161.83
2019-05-19T05:19:05.147Z,100158.08
2019-05-19T05:21:36.719Z,100149.31
2019-05-19T05:24:10.206Z,100143.97
2019-05-19T09:25:58.327Z,100132.14
2019-05-19T09:28:31.212Z,100140.69
2019-05-19T09:31:02.987Z,100135.78
2019-05-19T09:33:36.567Z,100128.95
2019-05-19T09:36:22.221Z,100127.71
2019-05-19T09:38:53.937Z,100130.91
2019-05-19T09:41:26.051Z,100130.64
2019-05-19T09:43:58.781Z,100125.53
2019-05-19T09:46:32.449Z,100127.52
2019-05-19T09:49:26.149Z,100128.68
2019-05-19T09:51:57.879Z,100127.21
2019-05-19T09:54:44.100Z,100126.75
2019-05-19T09:57:19.423Z,100124.83
2019-05-19T09:59:54.865Z,100124.77
2019-05-19T10:02:26.697Z,100129.34
2019-05-19T10:04:58.720Z,100120.58
2019-05-19T10:07:40.988Z,100117.99
2019-05-19T10:10:30.495Z,100114.80
2019-05-19T10:13:02.193Z,100112.16
2019-05-19T10:15:36.610Z,100116.61
2019-05-19T10:18:11.891Z,100113.22
2019-05-19T10:20:43.766Z,100104.81
2019-05-19T10:23:15.545Z,100102.85
2019-05-19T10:25:50.906Z,100105.86
2019-05-19T10:28:23.595Z,100108.31
2019-05-19T10:30:56.332Z,100099.02
2019-05-19T10:33:29.576Z,100108.56
2019-05-19T10:36:07.813Z,100100.63
2019-05-19T10:38:39.985Z,100093.85
2019-05-19T10:41:19.007Z,100088.73
2019-05-19T10:43:54.195Z,100086.63
2019-05-19T10:46:25.792Z,100081.20
2019-05-19T10:48:57.663Z,100080.03
2019-05-19T10:51:32.366Z,100082.13
2019-05-19T10:54:05.775Z,100089.58
2019-05-19T10:56:39.049Z,100077.20
2019-05-19T10:59:12.554Z,100076.38
2019-05-19T11:01:48.681Z,100068.06
2019-05-19T11:04:22.118Z,100065.52
2019-05-19T11:06:53.699Z,100067.36
2019-05-19T11:09:26.990Z,100067.66
2019-05-19T11:12:00.539Z,100062.12
2019-05-19T11:14:32.204Z,100058.70
2019-05-19T11:17:05.633Z,100066.96
2019-05-19T11:19:37.490Z,100062.27
2019-05-19T11:22:10.825Z,100054.77
2019-05-19T11:24:44.062Z,100051.69
2019-05-19T11:27:15.885Z,100053.41
2019-05-19T11:29:48.516Z,100054.23
2019-05-19T11:32:20.267Z,100050.87
2019-05-19T11:34:52.043Z,100043.47
2019-05-19T11:37:23.787Z,100043.87
2019-05-19T11:39:55.574Z,100038.88
2019-05-19T11:42:27.350Z,100045.44
2019-05-19T11:44:59.104Z,100033.61
2019-05-19T11:47:30.862Z,100031.58
2019-05-19T11:50:02.662Z,100030.60
2019-05-19T11:52:34.320Z,100027.80
2019-05-19T11:55:09.408Z,100022.42
2019-05-19T11:57:41.271Z,100019.38
2019-05-19T12:00:14.029Z,100025.17
2019-05-19T12:02:45.683Z,100024.70
2019-05-19T12:05:19.141Z,100015.30
2019-05-19T12:07:50.801Z,100020.64
2019-05-19T12:10:22.569Z,100016.61
2019-05-19T12:12:56.127Z,100014.91
2019-05-19T12:15:27.975Z,100011.30
2019-05-19T12:18:00.023Z,100006.19
2019-05-19T12:20:32.022Z,100009.38
2019-05-19T12:23:03.805Z,100004.22
2019-05-19T12:25:35.496Z,100000.55
2019-05-19T12:28:07.251Z,100002.92
2019-05-19T12:30:42.898Z,99993.75
2019-05-19T12:33:16.019Z,99989.27
2019-05-19T12:35:47.685Z,99988.30
2019-05-19T12:38:19.518Z,99986.08
2019-05-19T12:40:52.739Z,99983.08
2019-05-19T12:43:25.461Z,99983.67
2019-05-19T12:45:57.334Z,99977.45
2019-05-19T12:48:28.981Z,99974.92
2019-05-19T12:51:01.937Z,99964.71
2019-05-19T12:53:33.790Z,99962.73
2019-05-19T12:56:05.630Z,99965.53
2019-05-19T12:58:37.317Z,99963.60
2019-05-19T13:01:09.103Z,99970.39
2019-05-19T13:03:41.137Z,99959.95
2019-05-19T13:06:12.909Z,99959.83
2019-05-19T13:08:45.810Z,99959.20
2019-05-19T13:11:17.597Z,99957.14
2019-05-19T13:13:49.401Z,99962.63
2019-05-19T13:16:21.110Z,99961.08
2019-05-19T13:18:54.447Z,99960.34
2019-05-19T13:21:27.794Z,99957.20
2019-05-19T13:23:59.463Z,99953.64
2019-05-19T13:26:31.238Z,99960.45
2019-05-19T13:29:03.331Z,99955.84
2019-05-19T13:31:35.831Z,99951.69
2019-05-19T13:34:08.328Z,99946.23
2019-05-19T13:36:40.495Z,99947.48
2019-05-19T13:39:12.531Z,99944.54
2019-05-19T13:41:44.304Z,99942.56
2019-05-19T13:44:16.011Z,99935.66
2019-05-19T13:46:49.148Z,99936.80
2019-05-19T13:49:21.099Z,99940.64
2019-05-19T13:51:52.866Z,99933.20
2019-05-19T13:54:25.781Z,99938.05
2019-05-19T13:57:11.271Z,99937.47
2019-05-19T13:59:30.869Z,99936.11
2019-05-19T14:02:03.188Z,99937.03
2019-05-19T14:04:35.218Z,99935.19
2019-05-19T14:07:08.896Z,99939.32
2019-05-19T14:09:40.647Z,99920.91
2019-05-19T14:12:13.271Z,99918.25
2019-05-19T14:14:45.096Z,99917.36
2019-05-19T14:17:20.021Z,99922.34
2019-05-19T14:19:53.508Z,99928.34
2019-05-19T14:22:25.255Z,99931.44
2019-05-19T14:24:57.310Z,99938.28
2019-05-19T14:27:30.682Z,99939.17
2019-05-19T14:30:02.443Z,99941.66
2019-05-19T14:32:34.125Z,99938.61
2019-05-19T14:35:07.691Z,99932.91
2019-05-19T14:37:39.301Z,99928.92
2019-05-19T14:40:14.082Z,99928.51
2019-05-19T14:42:50.504Z,99923.29
2019-05-19T14:45:22.155Z,99909.80
2019-05-19T14:47:53.898Z,99911.24
2019-05-19T14:50:25.654Z,99911.16
2019-05-19T14:52:59.372Z,99923.63
2019-05-19T14:55:31.014Z,99926.18
2019-05-19T14:58:02.749Z,99936.47
2019-05-19T15:00:34.652Z,99937.84
2019-05-19T15:03:06.277Z,99933.74
2019-05-19T15:05:38.035Z,99919.88
2019-05-19T15:08:11.052Z,99916.23
2019-05-19T15:10:43.065Z,99921.94
2019-05-19T15:13:14.655Z,99928.91
2019-05-19T15:15:50.171Z,99926.81
2019-05-19T15:18:23.267Z,99930.53
2019-05-19T15:20:55.406Z,99923.70
2019-05-19T15:23:28.972Z,99925.45
2019-05-19T15:26:00.537Z,99934.80
2019-05-19T15:28:32.449Z,99934.16
2019-05-19T15:31:08.146Z,99929.91
2019-05-19T15:33:44.954Z,99937.30
2019-05-19T15:36:18.311Z,99943.30
2019-05-19T15:38:56.376Z,99945.36
2019-05-19T15:41:32.427Z,99941.42
2019-05-19T15:44:04.730Z,99937.38
2019-05-19T15:46:36.593Z,99933.92
2019-05-19T15:49:08.318Z,99941.91
2019-05-19T15:51:40.176Z,99963.03
2019-05-19T15:54:11.935Z,99961.40
2019-05-19T15:56:43.874Z,99958.28
2019-05-19T15:59:15.696Z,99953.65
2019-05-19T16:01:47.475Z,99959.68
2019-05-19T16:04:19.211Z,99957.95
2019-05-19T16:06:51.145Z,99957.56
2019-05-19T16:09:23.326Z,99950.08
2019-05-19T16:11:55.178Z,99942.88
2019-05-19T16:14:27.020Z,99944.64
2019-05-19T16:16:58.668Z,99942.42
2019-05-19T16:19:30.721Z,99945.13
2019-05-19T16:22:02.493Z,99940.42
2019-05-19T16:24:36.615Z,99947.11
2019-05-19T16:27:08.481Z,99945.28
2019-05-19T16:29:40.239Z,99947.91
2019-05-19T16:32:13.172Z,99943.75
2019-05-19T16:34:45.868Z,99945.13
2019-05-19T16:37:18.851Z,99944.06
2019-05-19T16:39:50.606Z,99947.68
2019-05-19T16:42:23.354Z,99938.04
2019-05-19T16:44:55.099Z,99950.92
2019-05-19T16:47:26.868Z,99954.48
2019-05-19T16:49:58.523Z,99950.20
2019-05-19T16:52:30.451Z,99945.61
2019-05-19T16:55:18.762Z,99955.05
2019-05-19T16:57:50.832Z,99957.86
2019-05-19T17:00:24.747Z,99945.77
2019-05-19T17:02:56.317Z,99945.48
2019-05-19T17:05:28.238Z,99953.01
2019-05-19T17:07:59.968Z,99943.27
2019-05-19T17:10:33.220Z,99947.42
2019-05-19T17:13:04.980Z,99940.94
2019-05-19T17:15:36.760Z,99940.55
2019-05-19T17:18:09.988Z,99938.20
2019-05-19T17:20:41.847Z,99942.64
2019-05-19T17:23:13.629Z,99949.86
2019-05-19T17:25:45.357Z,99955.60
2019-05-19T17:28:17.152Z,99952.89
2019-05-19T17:30:48.921Z,99944.77
2019-05-19T17:33:20.741Z,99948.50
2019-05-19T17:35:53.404Z,99941.05
2019-05-19T17:38:27.166Z,99945.17
2019-05-19T17:40:58.805Z,99935.75
2019-05-19T17:43:30.678Z,99940.14
2019-05-19T17:46:02.445Z,99945.10
2019-05-19T17:48:35.533Z,99946.94
2019-05-19T17:51:07.654Z,99953.06
2019-05-19T17:53:39.577Z,99946.73
2019-05-19T17:56:14.727Z,99957.66
2019-05-19T17:58:47.560Z,99956.05
2019-05-19T18:01:19.119Z,99957.09
2019-05-19T18:03:51.056Z,99950.38
2019-05-19T18:06:22.792Z,99946.39
2019-05-19T18:08:54.481Z,99942.05
2019-05-19T18:11:27.473Z,99935.01
2019-05-19T18:13:59.161Z,99925.87
2019-05-19T18:16:30.897Z,99922.06
2019-05-19T18:19:04.305Z,99916.84
2019-05-19T18:21:36.003Z,99920.77
2019-05-19T18:24:07.768Z,99916.43
2019-05-19T18:26:42.381Z,99915.27
2019-05-19T18:29:14.043Z,99905.58
2019-05-19T18:31:45.766Z,99902.27
2019-05-19T18:34:17.527Z,99904.84
2019-05-19T18:36:52.006Z,99912.13
2019-05-19T18:39:23.605Z,99905.45
2019-05-19T18:41:55.240Z,99917.65
2019-05-19T18:44:27.033Z,99917.69
2019-05-19T18:46:59.440Z,99912.39
2019-05-19T18:49:39.133Z,99915.86
2019-05-19T18:52:16.439Z,99929.73
2019-05-19T18:54:52.702Z,99940.39
2019-05-19T18:57:30.106Z,99943.80
2019-05-19T19:02:48.338Z,99964.55
2019-05-19T19:05:20.110Z,99959.68
2019-05-19T19:07:53.507Z,99960.85
2019-05-19T19:10:25.170Z,99958.50
2019-05-19T19:12:56.937Z,99953.45
2019-05-19T19:15:28.683Z,99961.02
2019-05-19T19:18:04.403Z,99971.81
2019-05-19T19:20:36.319Z,99979.91
2019-05-19T19:23:09.285Z,99978.09
2019-05-19T19:25:42.253Z,99983.80
2019-05-19T19:28:14.400Z,99989.53
2019-05-19T19:30:50.243Z,99987.16
2019-05-19T19:33:21.918Z,99980.95
2019-05-19T19:35:56.769Z,99973.34
2019-05-19T19:38:32.317Z,99972.66
2019-05-19T19:41:05.330Z,99965.59
2019-05-19T19:43:37.152Z,99964.22
2019-05-19T19:46:08.825Z,99963.19
2019-05-19T19:48:40.588Z,99968.41
2019-05-19T19:51:13.455Z,99962.16
2019-05-19T19:53:48.769Z,99962.16
2019-05-19T19:56:22.829Z,99958.12
2019-05-19T19:58:59.147Z,99956.09
2019-05-19T20:01:31.078Z,99958.09
2019-05-19T20:04:03.322Z,99949.34
2019-05-19T20:06:34.913Z,99946.30
2019-05-19T20:09:07.964Z,99945.77
2019-05-19T20:11:40.951Z,99929.11
2019-05-19T20:14:12.630Z,99930.09
2019-05-19T20:16:44.368Z,99930.05
2019-05-19T20:19:22.251Z,99924.29
2019-05-19T20:21:54.146Z,99914.48
2019-05-19T20:24:33.844Z,99910.53
2019-05-19T20:27:07.149Z,99911.31
2019-05-19T20:29:38.799Z,99913.79
2019-05-19T20:32:13.329Z,99916.47
2019-05-19T20:34:45.082Z,99912.27
2019-05-19T20:37:17.994Z,99913.62
2019-05-19T20:39:52.541Z,99914.28
2019-05-19T20:42:25.887Z,99903.19
2019-05-19T20:45:03.106Z,99901.17
2019-05-19T20:47:37.047Z,99902.69
2019-05-19T20:50:10.886Z,99912.27
2019-05-19T20:52:43.733Z,99908.86
2019-05-19T20:55:16.369Z,99912.55
2019-05-19T20:57:49.662Z,99915.34
2019-05-19T21:00:23.062Z,99922.56
2019-05-19T21:02:54.612Z,99913.64
2019-05-19T21:05:28.523Z,99909.11
2019-05-19T21:08:02.445Z,99910.09
2019-05-19T21:10:38.489Z,99906.27
2019-05-19T21:13:13.912Z,99907.66
2019-05-19T21:15:45.474Z,99903.91
2019-05-19T21:18:17.187Z,99910.25
2019-05-19T21:20:49.171Z,99910.66
2019-05-19T21:23:21.332Z,99904.67
2019-05-19T21:25:53.078Z,99905.50
2019-05-19T21:28:26.224Z,99904.64
2019-05-19T21:31:06.064Z,99902.31
2019-05-19T21:33:31.214Z,99900.63
2019-05-19T21:36:02.953Z,99896.61
2019-05-19T21:38:34.672Z,99898.56
2019-05-19T21:41:08.334Z,99901.16
2019-05-19T21:43:40.059Z,99909.16
2019-05-19T21:46:11.815Z,99909.47
2019-05-19T21:48:43.529Z,99904.82
2019-05-19T21:51:17.849Z,99911.28
2019-05-19T21:53:50.859Z,99916.06
2019-05-19T21:56:22.584Z,99914.72
2019-05-19T21:58:54.318Z,99913.88
2019-05-19T22:01:26.796Z,99915.31
2019-05-19T22:03:58.421Z,99914.12
2019-05-19T22:06:31.824Z,99912.65
2019-05-19T22:09:04.385Z,99911.17
2019-05-19T22:11:36.098Z,99913.50
2019-05-19T22:14:07.917Z,99918.72
2019-05-19T22:16:39.668Z,99925.00
2019-05-19T22:19:11.399Z,99920.29
2019-05-19T22:21:43.250Z,99926.50
2019-05-19T22:24:14.973Z,99931.66
2019-05-19T22:26:46.704Z,99925.80
2019-05-19T22:29:18.439Z,99929.76
2019-05-19T22:31:50.279Z,99925.39
2019-05-19T22:34:22.025Z,99924.41
2019-05-19T22:36:53.939Z,99923.41
2019-05-19T22:39:25.764Z,99918.61
2019-05-19T22:42:00.096Z,99932.00
2019-05-19T22:44:31.719Z,99919.59
2019-05-19T22:47:03.575Z,99917.50
2019-05-19T22:49:35.278Z,99913.67
2019-05-19T22:52:07.021Z,99908.71
2019-05-19T22:54:38.843Z,99915.30
2019-05-19T22:57:10.586Z,99910.17
2019-05-19T22:59:42.307Z,99912.69
2019-05-19T23:02:14.052Z,99911.63
2019-05-19T23:04:45.885Z,99906.28
2019-05-19T23:07:17.666Z,99907.27
2019-05-19T23:09:49.382Z,99911.91
2019-05-19T23:12:21.131Z,99913.60
2019-05-19T23:14:54.323Z,99909.80
2019-05-19T23:17:28.085Z,99907.27
2019-05-19T23:19:59.803Z,99901.22
2019-05-19T23:22:31.562Z,99898.94
2019-05-19T23:25:03.757Z,99902.31
2019-05-19T23:27:35.710Z,99903.55
2019-05-19T23:30:11.183Z,99907.21
2019-05-19T23:32:42.913Z,99901.80
2019-05-19T23:35:14.700Z,99905.45
2019-05-19T23:37:47.635Z,99903.66
2019-05-19T23:40:19.363Z,99905.20
2019-05-19T23:42:52.955Z,99896.72
2019-05-19T23:45:24.678Z,99896.58
2019-05-19T23:47:56.530Z,99898.27
2019-05-19T23:50:28.257Z,99901.72
2019-05-19T23:53:00.005Z,99900.13
2019-05-19T23:55:32.605Z,99907.25
2019-05-19T23:58:04.448Z,99903.87
